createdAt,value
2018-08-04T00:01:29.641Z,101471.72
2018-08-04T00:03:57.680Z,101475.73
2018-08-04T00:06:25.699Z,101483.21
2018-08-04T00:08:53.732Z,101471.20
2018-08-04T00:11:21.782Z,101475.38
2018-08-04T00:13:49.956Z,101471.17
2018-08-04T00:16:17.988Z,101475.17
2018-08-04T00:18:46.021Z,101482.35
2018-08-04T00:21:14.059Z,101480.48
2018-08-04T00:23:42.072Z,101484.47
2018-08-04T00:26:10.108Z,101478.31
2018-08-04T00:28:38.113Z,101475.45
2018-08-04T00:31:06.140Z,101469.15
2018-08-04T00:33:34.170Z,101466.49
2018-08-04T00:36:02.198Z,101464.31
2018-08-04T00:38:30.245Z,101463.14
2018-08-04T00:40:58.276Z,101462.98
2018-08-04T00:43:26.299Z,101453.30
2018-08-04T00:45:54.336Z,101453.48
2018-08-04T00:48:22.425Z,101457.83
2018-08-04T00:50:50.449Z,101462.48
2018-08-04T00:53:18.474Z,101457.28
2018-08-04T00:55:46.503Z,101465.25
2018-08-04T00:58:14.516Z,101459.23
2018-08-04T01:00:42.543Z,101456.56
2018-08-04T01:03:10.564Z,101451.41
2018-08-04T01:05:38.610Z,101449.05
2018-08-04T01:08:06.617Z,101450.66
2018-08-04T01:10:34.637Z,101445.02
2018-08-04T01:13:02.665Z,101445.52
2018-08-04T01:15:30.683Z,101445.34
2018-08-04T01:17:58.697Z,101449.34
2018-08-04T01:20:26.717Z,101440.86
2018-08-04T01:22:54.773Z,101447.16
2018-08-04T01:25:22.971Z,101453.80
2018-08-04T01:27:50.981Z,101448.14
2018-08-04T01:30:19.005Z,101439.48
2018-08-04T01:32:47.066Z,101434.16
2018-08-04T01:35:15.398Z,101433.97
2018-08-04T01:37:43.421Z,101438.45
2018-08-04T01:40:11.448Z,101431.78
2018-08-04T01:42:39.500Z,101431.11
2018-08-04T01:45:07.560Z,101432.61
2018-08-04T01:47:35.593Z,101428.30
2018-08-04T01:50:03.639Z,101422.30
2018-08-04T01:52:31.664Z,101425.62
2018-08-04T01:54:59.728Z,101427.06
2018-08-04T01:57:27.759Z,101429.73
2018-08-04T01:59:55.773Z,101426.58
2018-08-04T02:02:23.786Z,101430.23
2018-08-04T02:04:51.810Z,101432.88
2018-08-04T02:07:20.075Z,101431.14
2018-08-04T02:09:48.050Z,101434.95
2018-08-04T02:12:16.144Z,101431.13
2018-08-04T02:14:50.853Z,101422.80
2018-08-04T02:17:18.881Z,101411.72
2018-08-04T02:19:46.898Z,101410.39
2018-08-04T02:22:14.967Z,101407.03
2018-08-04T02:24:43.841Z,101404.07
2018-08-04T02:27:11.864Z,101393.09
2018-08-04T02:29:39.905Z,101390.81
2018-08-04T02:32:07.945Z,101395.16
2018-08-04T02:34:35.981Z,101401.16
2018-08-04T02:37:04.717Z,101396.84
2018-08-04T02:39:32.762Z,101405.14
2018-08-04T02:42:00.785Z,101400.13
2018-08-04T02:44:28.873Z,101395.27
2018-08-04T02:46:56.904Z,101399.91
2018-08-04T02:49:24.949Z,101398.08
2018-08-04T02:51:53.004Z,101401.03
2018-08-04T02:54:21.024Z,101401.63
2018-08-04T02:56:49.048Z,101406.58
2018-08-04T02:59:17.078Z,101404.19
2018-08-04T03:01:45.120Z,101403.13
2018-08-04T03:04:13.141Z,101405.94
2018-08-04T03:06:41.178Z,101398.78
2018-08-04T03:09:10.743Z,101392.52
2018-08-04T03:11:38.828Z,101396.86
2018-08-04T03:14:06.924Z,101398.86
2018-08-04T03:16:34.952Z,101405.87
2018-08-04T03:19:02.985Z,101405.52
2018-08-04T03:21:31.704Z,101403.50
2018-08-04T03:23:59.729Z,101402.77
2018-08-04T03:26:27.859Z,101404.09
2018-08-04T03:28:55.977Z,101412.91
2018-08-04T03:31:24.012Z,101417.74
2018-08-04T03:33:52.028Z,101414.17
2018-08-04T03:36:20.071Z,101413.46
2018-08-04T03:38:48.093Z,101404.36
2018-08-04T03:41:16.692Z,101398.42
2018-08-04T03:43:44.704Z,101394.47
2018-08-04T03:46:12.733Z,101395.98
2018-08-04T03:48:40.749Z,101396.48
2018-08-04T03:51:08.782Z,101389.83
2018-08-04T03:53:36.806Z,101402.77
2018-08-04T03:56:04.832Z,101412.07
2018-08-04T03:58:32.863Z,101411.20
2018-08-04T04:01:00.904Z,101416.73
2018-08-04T04:03:28.929Z,101408.38
2018-08-04T04:05:56.960Z,101409.18
2018-08-04T04:08:24.998Z,101413.84
2018-08-04T04:10:53.029Z,101419.87
2018-08-04T04:13:21.457Z,101410.58
2018-08-04T04:15:49.486Z,101412.42
2018-08-04T04:18:17.504Z,101410.73
2018-08-04T04:20:45.526Z,101413.04
2018-08-04T04:23:13.546Z,101413.48
2018-08-04T04:25:41.578Z,101413.48
2018-08-04T04:28:09.593Z,101420.94
2018-08-04T04:30:37.624Z,101418.73
2018-08-04T04:33:05.822Z,101418.57
2018-08-04T04:35:33.844Z,101415.27
2018-08-04T04:38:01.887Z,101418.28
2018-08-04T04:40:29.897Z,101423.23
2018-08-04T04:42:57.932Z,101409.72
2018-08-04T04:45:25.949Z,101411.20
2018-08-04T04:47:53.981Z,101407.67
2018-08-04T04:50:22.021Z,101408.70
2018-08-04T04:52:50.172Z,101416.72
2018-08-04T04:55:18.374Z,101414.42
2018-08-04T04:57:46.413Z,101404.64
2018-08-04T05:00:14.433Z,101406.84
2018-08-04T05:02:42.567Z,101406.03
2018-08-04T05:05:10.625Z,101415.17
2018-08-04T05:07:38.705Z,101421.82
2018-08-04T05:10:07.022Z,101422.95
2018-08-04T05:12:35.282Z,101428.67
2018-08-04T05:15:03.337Z,101433.63
2018-08-04T05:17:31.361Z,101432.66
2018-08-04T05:19:59.429Z,101430.80
2018-08-04T05:22:27.446Z,101430.29
2018-08-04T05:24:55.485Z,101434.95
2018-08-04T05:27:23.513Z,101433.95
2018-08-04T05:29:51.553Z,101439.22
2018-08-04T05:32:19.624Z,101442.80
2018-08-04T05:34:47.653Z,101442.44
2018-08-04T05:37:15.688Z,101447.02
2018-08-04T05:39:43.716Z,101449.63
2018-08-04T05:42:11.745Z,101451.00
2018-08-04T05:44:39.785Z,101459.30
2018-08-04T05:47:07.802Z,101463.48
2018-08-04T05:49:35.832Z,101463.33
2018-08-04T05:52:04.563Z,101454.59
2018-08-04T05:54:32.581Z,101464.41
2018-08-04T05:57:00.624Z,101458.74
2018-08-04T05:59:28.648Z,101460.39
2018-08-04T06:01:56.696Z,101461.52
2018-08-04T06:04:24.752Z,101463.38
2018-08-04T06:06:52.789Z,101462.69
2018-08-04T06:09:20.811Z,101463.38
2018-08-04T06:11:48.862Z,101461.96
2018-08-04T06:14:16.898Z,101457.33
2018-08-04T06:16:44.939Z,101466.95
2018-08-04T06:19:12.981Z,101466.72
2018-08-04T06:21:41.010Z,101467.88
2018-08-04T06:24:09.042Z,101470.95
2018-08-04T06:26:37.072Z,101470.89
2018-08-04T06:29:05.251Z,101475.16
2018-08-04T06:31:33.278Z,101471.30
2018-08-04T06:34:01.311Z,101477.59
2018-08-04T06:36:29.541Z,101479.91
2018-08-04T06:38:57.588Z,101479.07
2018-08-04T06:41:25.613Z,101488.20
2018-08-04T06:44:00.024Z,101484.79
2018-08-04T06:46:28.051Z,101483.73
2018-08-04T06:48:56.066Z,101486.94
2018-08-04T06:51:24.133Z,101486.48
2018-08-04T06:53:52.157Z,101488.89
2018-08-04T06:56:20.182Z,101490.54
2018-08-04T06:58:48.201Z,101486.21
2018-08-04T07:01:16.231Z,101484.45
2018-08-04T07:03:44.420Z,101487.02
2018-08-04T07:06:12.452Z,101481.42
2018-08-04T07:08:40.477Z,101485.45
2018-08-04T07:11:08.508Z,101492.62
2018-08-04T07:13:36.557Z,101500.81
2018-08-04T07:16:05.319Z,101495.58
2018-08-04T07:18:33.353Z,101499.43
2018-08-04T07:21:01.392Z,101493.91
2018-08-04T07:23:29.435Z,101493.98
2018-08-04T07:25:57.464Z,101492.76
2018-08-04T07:28:25.653Z,101487.33
2018-08-04T07:30:53.700Z,101496.73
2018-08-04T07:33:21.728Z,101494.48
2018-08-04T07:35:49.752Z,101499.20
2018-08-04T07:38:17.945Z,101496.58
2018-08-04T07:40:45.989Z,101495.09
2018-08-04T07:43:14.012Z,101493.31
2018-08-04T07:45:42.045Z,101491.85
2018-08-04T07:48:10.196Z,101493.39
2018-08-04T07:50:38.235Z,101491.42
2018-08-04T07:53:06.924Z,101494.62
2018-08-04T07:55:34.968Z,101501.54
2018-08-04T07:58:03.128Z,101503.96
2018-08-04T08:00:31.304Z,101502.91
2018-08-04T08:02:59.320Z,101499.20
2018-08-04T08:05:27.345Z,101503.12
2018-08-04T08:07:55.384Z,101494.03
2018-08-04T08:10:23.526Z,101495.51
2018-08-04T08:12:51.749Z,101503.61
2018-08-04T08:15:19.784Z,101513.16
2018-08-04T08:17:47.894Z,101510.23
2018-08-04T08:20:15.946Z,101513.55
2018-08-04T08:22:44.636Z,101515.55
2018-08-04T08:25:12.680Z,101514.41
2018-08-04T08:27:40.941Z,101519.19
2018-08-04T08:30:13.201Z,101519.59
2018-08-04T08:32:41.493Z,101515.22
2018-08-04T08:35:10.103Z,101520.71
2018-08-04T08:37:38.132Z,101520.60
2018-08-04T08:40:06.770Z,101515.66
2018-08-04T08:42:34.800Z,101519.65
2018-08-04T08:45:02.845Z,101515.48
2018-08-04T08:47:31.305Z,101519.07
2018-08-04T08:49:59.321Z,101516.81
2018-08-04T08:52:27.351Z,101523.83
2018-08-04T08:54:55.524Z,101521.02
2018-08-04T08:57:23.601Z,101520.16
2018-08-04T08:59:51.632Z,101522.95
2018-08-04T09:02:19.664Z,101521.80
2018-08-04T09:04:47.694Z,101518.63
2018-08-04T09:07:15.741Z,101526.91
2018-08-04T09:09:43.758Z,101518.75
2018-08-04T09:12:11.780Z,101527.20
2018-08-04T09:14:39.811Z,101528.75
2018-08-04T09:17:07.896Z,101534.34
2018-08-04T09:19:35.939Z,101528.30
2018-08-04T09:22:04.905Z,101528.05
2018-08-04T09:24:32.941Z,101525.26
2018-08-04T09:27:00.972Z,101523.58
2018-08-04T09:29:28.989Z,101520.42
2018-08-04T09:31:57.029Z,101525.73
2018-08-04T09:34:25.071Z,101520.36
2018-08-04T09:36:53.280Z,101524.25
2018-08-04T09:39:21.320Z,101521.78
2018-08-04T09:41:49.357Z,101522.45
2018-08-04T09:44:17.395Z,101510.41
2018-08-04T09:46:45.623Z,101516.42
2018-08-04T09:49:13.708Z,101516.46
2018-08-04T09:51:41.728Z,101511.96
2018-08-04T09:54:09.769Z,101516.23
2018-08-04T09:56:37.812Z,101518.31
2018-08-04T09:59:05.853Z,101515.60
2018-08-04T10:01:37.269Z,101518.75
2018-08-04T10:04:05.469Z,101520.69
2018-08-04T10:06:33.508Z,101523.61
2018-08-04T10:09:01.561Z,101523.25
2018-08-04T10:11:29.600Z,101511.97
2018-08-04T10:13:57.644Z,101512.89
2018-08-04T10:16:25.689Z,101518.47
2018-08-04T10:18:54.614Z,101524.50
2018-08-04T10:21:22.672Z,101513.95
2018-08-04T10:23:50.708Z,101513.43
2018-08-04T10:26:18.748Z,101518.25
2018-08-04T10:28:46.786Z,101509.46
2018-08-04T10:31:14.830Z,101518.18
2018-08-04T10:33:43.019Z,101510.20
2018-08-04T10:36:11.055Z,101516.13
2018-08-04T10:38:39.119Z,101510.49
2018-08-04T10:41:07.117Z,101508.27
2018-08-04T10:43:35.149Z,101509.62
2018-08-04T10:46:03.183Z,101510.22
2018-08-04T10:48:31.862Z,101500.55
2018-08-04T10:50:59.910Z,101498.76
2018-08-04T10:53:27.939Z,101502.85
2018-08-04T10:55:55.958Z,101499.88
2018-08-04T10:58:24.003Z,101503.34
2018-08-04T11:00:52.036Z,101502.30
2018-08-04T11:03:20.093Z,101501.34
2018-08-04T11:05:48.158Z,101497.48
2018-08-04T11:08:16.264Z,101499.91
2018-08-04T11:10:44.272Z,101500.12
2018-08-04T11:13:12.309Z,101493.52
2018-08-04T11:15:40.343Z,101482.47
2018-08-04T11:18:08.417Z,101496.30
2018-08-04T11:20:36.425Z,101496.84
2018-08-04T11:23:04.968Z,101491.03
2018-08-04T11:25:33.004Z,101496.69
2018-08-04T11:28:01.829Z,101486.97
2018-08-04T11:30:29.856Z,101488.95
2018-08-04T11:32:57.888Z,101491.59
2018-08-04T11:35:25.921Z,101487.69
2018-08-04T11:37:53.953Z,101489.28
2018-08-04T11:40:21.981Z,101475.03
2018-08-04T11:42:49.997Z,101481.67
2018-08-04T11:45:18.042Z,101484.81
2018-08-04T11:47:46.061Z,101473.58
2018-08-04T11:50:14.085Z,101480.25
2018-08-04T11:52:42.103Z,101471.53
2018-08-04T11:55:10.130Z,101461.94
2018-08-04T11:57:38.158Z,101467.77
2018-08-04T12:00:06.349Z,101457.32
2018-08-04T12:02:34.367Z,101458.56
2018-08-04T12:05:02.375Z,101458.73
2018-08-04T12:07:30.417Z,101465.94
2018-08-04T12:09:58.463Z,101467.57
2018-08-04T12:12:26.480Z,101464.48
2018-08-04T12:14:54.507Z,101459.09
2018-08-04T12:17:22.848Z,101465.97
2018-08-04T12:19:50.860Z,101464.33
2018-08-04T12:22:18.885Z,101464.33
2018-08-04T12:24:51.080Z,101462.72
2018-08-04T12:27:19.106Z,101455.77
2018-08-04T12:29:47.126Z,101461.52
2018-08-04T12:32:15.165Z,101467.30
2018-08-04T12:34:43.183Z,101469.04
2018-08-04T12:37:11.213Z,101466.70
2018-08-04T12:39:39.243Z,101457.38
2018-08-04T12:42:07.269Z,101458.60
2018-08-04T12:44:35.281Z,101450.92
2018-08-04T12:47:03.336Z,101457.38
2018-08-04T12:49:31.349Z,101456.20
2018-08-04T12:51:59.366Z,101448.05
2018-08-04T12:54:27.398Z,101445.36
2018-08-04T12:56:55.388Z,101447.06
2018-08-04T12:59:23.644Z,101448.80
2018-08-04T13:01:51.657Z,101443.59
2018-08-04T13:04:19.665Z,101435.88
2018-08-04T13:06:47.684Z,101444.25
2018-08-04T13:09:15.698Z,101435.78
2018-08-04T13:11:43.708Z,101432.89
2018-08-04T13:14:11.728Z,101435.64
2018-08-04T13:16:39.736Z,101435.59
2018-08-04T13:19:07.752Z,101430.56
2018-08-04T13:21:35.789Z,101421.66
2018-08-04T13:24:03.833Z,101412.94
2018-08-04T13:26:31.848Z,101412.06
2018-08-04T13:28:59.876Z,101420.02
2018-08-04T13:31:27.904Z,101412.74
2018-08-04T13:33:55.920Z,101417.22
2018-08-04T13:36:23.955Z,101423.34
2018-08-04T13:38:51.961Z,101415.21
2018-08-04T13:41:19.989Z,101416.22
2018-08-04T13:43:48.004Z,101414.38
2018-08-04T13:46:16.035Z,101416.55
2018-08-04T13:48:44.053Z,101416.37
2018-08-04T13:51:12.098Z,101410.37
2018-08-04T13:53:40.125Z,101405.23
2018-08-04T13:56:08.141Z,101417.22
2018-08-04T13:58:36.254Z,101402.36
2018-08-04T14:01:04.637Z,101407.77
2018-08-04T14:03:32.734Z,101411.05
2018-08-04T14:06:00.849Z,101403.53
2018-08-04T14:08:28.842Z,101400.80
2018-08-04T14:10:56.861Z,101393.44
2018-08-04T14:13:25.137Z,101405.34
2018-08-04T14:15:53.153Z,101400.02
2018-08-04T14:18:21.197Z,101404.42
2018-08-04T14:20:49.240Z,101401.53
2018-08-04T14:23:17.240Z,101409.48
2018-08-04T14:25:45.261Z,101394.37
2018-08-04T14:28:13.324Z,101406.30
2018-08-04T14:30:41.336Z,101403.20
2018-08-04T14:33:09.365Z,101399.97
2018-08-04T14:35:37.393Z,101400.05
2018-08-04T14:38:05.415Z,101405.52
2018-08-04T14:40:33.448Z,101401.12
2018-08-04T14:43:01.501Z,101406.78
2018-08-04T14:45:29.524Z,101401.38
2018-08-04T14:47:57.563Z,101400.20
2018-08-04T14:50:25.576Z,101402.11
2018-08-04T14:52:53.613Z,101407.93
2018-08-04T14:55:21.756Z,101403.45
2018-08-04T14:57:49.792Z,101400.52
2018-08-04T15:00:17.819Z,101394.70
2018-08-04T15:02:45.832Z,101395.36
2018-08-04T15:05:13.868Z,101399.12
2018-08-04T15:07:41.880Z,101401.23
2018-08-04T15:10:10.981Z,101399.12
2018-08-04T15:12:39.015Z,101398.45
2018-08-04T15:15:07.385Z,101404.06
2018-08-04T15:17:35.384Z,101392.89
2018-08-04T15:20:03.657Z,101400.17
2018-08-04T15:22:31.684Z,101401.97
2018-08-04T15:24:59.846Z,101395.87
2018-08-04T15:27:27.872Z,101402.63
2018-08-04T15:29:55.900Z,101405.42
2018-08-04T15:32:23.941Z,101396.80
2018-08-04T15:34:51.945Z,101408.33
2018-08-04T15:37:20.961Z,101405.85
2018-08-04T15:39:48.972Z,101397.80
2018-08-04T15:42:16.985Z,101403.06
2018-08-04T15:44:47.868Z,101404.19
2018-08-04T15:47:15.885Z,101407.93
2018-08-04T15:49:43.908Z,101410.81
2018-08-04T15:52:11.948Z,101406.76
2018-08-04T15:54:39.961Z,101402.59
2018-08-04T15:57:08.134Z,101416.40
2018-08-04T15:59:36.483Z,101403.27
2018-08-04T16:02:04.867Z,101407.01
2018-08-04T16:04:32.893Z,101415.00
2018-08-04T16:07:00.918Z,101425.45
2018-08-04T16:09:28.956Z,101427.64
2018-08-04T16:11:56.992Z,101425.09
2018-08-04T16:14:25.046Z,101423.42
2018-08-04T16:16:53.525Z,101427.06
2018-08-04T16:19:21.512Z,101430.08
2018-08-04T16:21:49.540Z,101430.41
2018-08-04T16:24:17.619Z,101438.26
2018-08-04T16:26:45.592Z,101439.70
2018-08-04T16:29:13.631Z,101437.70
2018-08-04T16:31:41.661Z,101430.55
2018-08-04T16:34:09.682Z,101433.23
2018-08-04T16:36:37.724Z,101434.81
2018-08-04T16:39:08.021Z,101438.42
2018-08-04T16:41:36.178Z,101436.05
2018-08-04T16:44:04.188Z,101438.32
2018-08-04T16:46:32.198Z,101442.84
2018-08-04T16:49:00.220Z,101446.33
2018-08-04T16:51:28.274Z,101445.80
2018-08-04T16:53:56.301Z,101455.09
2018-08-04T16:56:24.333Z,101451.15
2018-08-04T16:58:52.587Z,101457.84
2018-08-04T17:01:20.735Z,101450.37
2018-08-04T17:03:48.781Z,101454.41
2018-08-04T17:06:16.810Z,101455.66
2018-08-04T17:08:44.841Z,101452.85
2018-08-04T17:11:12.910Z,101461.09
2018-08-04T17:13:40.977Z,101462.83
2018-08-04T17:16:09.002Z,101466.14
2018-08-04T17:18:37.016Z,101455.14
2018-08-04T17:21:05.074Z,101466.98
2018-08-04T17:23:33.078Z,101472.20
2018-08-04T17:26:01.129Z,101465.70
2018-08-04T17:28:29.186Z,101466.25
2018-08-04T17:30:57.204Z,101466.17
2018-08-04T17:33:25.286Z,101470.50
2018-08-04T17:35:53.538Z,101468.36
2018-08-04T17:38:21.558Z,101461.50
2018-08-04T17:40:49.567Z,101470.38
2018-08-04T17:43:17.593Z,101475.83
2018-08-04T17:45:45.607Z,101468.89
2018-08-04T17:48:13.631Z,101474.13
2018-08-04T17:50:41.652Z,101479.51
